Terminal Aerodrome Forecast
Issued by NWS Upton, NY

Home | Current Version | Previous Version | Text Only | Print | Product List | Glossary On
Versions: 1 2 3 4 5 6 7 8 9 10 11 12 13 14 15 16 17 18 19 20 21 22 23 24 25 26 27
000
FTUS41 KOKX 270539
TAFEWR
TAF
KEWR 270539Z 2706/2812 20009KT P6SM FEW012 SCT050 BKN200
     FM271400 21010G16KT P6SM BKN050
     FM271800 20012G18KT P6SM BKN040
     FM280100 21010KT P6SM SCT010 BKN040
     FM280700 21006KT 5SM BR BKN010=

USA.gov is the U.S. government's official web portal to all federal, state and local government web resources and services.